Time;durP1;ratioP1;P1;durP2;ratioP2;P2;SDS_P1;SDS_P2;PMS_P1;PMS_P2;Temp;Humidity;BMP_temperature;BMP_pressure;BME280_temperature;BME280_humidity;BME280_pressure;Samples;Min_cycle;Max_cycle;Signal;HPM_P1;HPM_P2
2024/01/04 00:00:32;;;;;;;2.83;2.33;;;5.10;99.90;;;;;;5057390;28;20239;-78
2024/01/04 00:02:58;;;;;;;2.57;2.37;;;5.20;99.90;;;;;;5056271;28;20530;-76
2024/01/04 00:05:24;;;;;;;2.40;2.20;;;5.90;99.90;;;;;;5057842;28;20203;-78
2024/01/04 00:07:50;;;;;;;2.30;2.20;;;5.20;99.90;;;;;;5055559;28;20247;-80
2024/01/04 00:10:17;;;;;;;2.37;2.20;;;5.10;99.90;;;;;;5056322;28;20227;-78
2024/01/04 00:12:44;;;;;;;2.57;2.40;;;5.10;99.90;;;;;;5058830;28;20186;-80
2024/01/04 00:15:10;;;;;;;2.57;2.47;;;5.10;99.90;;;;;;5058071;28;20199;-80
2024/01/04 00:17:36;;;;;;;2.60;2.40;;;5.10;99.90;;;;;;5068280;28;20179;-78
2024/01/04 00:20:02;;;;;;;2.50;2.23;;;5.10;99.90;;;;;;5055784;28;20585;-79
2024/01/04 00:22:28;;;;;;;2.10;2.00;;;5.10;99.90;;;;;;5056462;28;20184;-78
2024/01/04 00:24:54;;;;;;;2.73;2.20;;;5.10;99.90;;;;;;5057826;28;20172;-78
2024/01/04 00:27:20;;;;;;;2.67;2.47;;;5.10;99.90;;;;;;5073312;28;20159;-77
2024/01/04 00:29:46;;;;;;;3.00;2.40;;;5.20;99.90;;;;;;5064440;28;20189;-76
2024/01/04 00:32:12;;;;;;;2.30;2.20;;;5.10;99.90;;;;;;5056513;28;20208;-77
2024/01/04 00:34:37;;;;;;;2.30;2.20;;;5.10;99.90;;;;;;5054639;28;20248;-77
2024/01/04 00:37:04;;;;;;;2.60;2.40;;;5.10;99.90;;;;;;5054582;28;20524;-79
2024/01/04 00:39:30;;;;;;;2.37;2.27;;;5.00;99.90;;;;;;5055767;28;20541;-77
2024/01/04 00:41:56;;;;;;;2.30;2.10;;;5.00;99.90;;;;;;5054237;28;20232;-78
2024/01/04 00:44:22;;;;;;;2.50;2.30;;;5.00;99.90;;;;;;5053821;28;20530;-77
2024/01/04 00:46:48;;;;;;;2.50;2.40;;;4.90;99.90;;;;;;5056331;28;20252;-76
2024/01/04 00:49:14;;;;;;;2.43;2.30;;;5.00;99.90;;;;;;5055623;28;20214;-77
2024/01/04 00:51:41;;;;;;;2.27;2.07;;;4.90;99.90;;;;;;5057144;28;20304;-78
2024/01/04 00:54:07;;;;;;;2.77;2.20;;;5.00;99.90;;;;;;5068447;28;20202;-79
2024/01/04 00:56:34;;;;;;;2.23;2.10;;;5.10;99.90;;;;;;5063603;28;20620;-79
2024/01/04 00:59:03;;;;;;;2.10;2.00;;;5.20;99.90;;;;;;5058421;28;20592;-78
2024/01/04 01:01:32;;;;;;;2.20;2.10;;;5.20;99.90;;;;;;5056331;28;20169;-80
2024/01/04 01:03:58;;;;;;;2.20;2.10;;;5.30;99.90;;;;;;5054907;28;20183;-78
2024/01/04 01:06:24;;;;;;;2.33;2.20;;;5.30;99.90;;;;;;5056807;28;20252;-76
2024/01/04 01:08:49;;;;;;;3.00;2.40;;;5.40;99.90;;;;;;5059361;28;20226;-78
2024/01/04 01:11:15;;;;;;;2.50;2.40;;;5.40;99.90;;;;;;5059252;28;20250;-80
2024/01/04 01:13:41;;;;;;;2.40;2.20;;;5.30;99.90;;;;;;5054223;28;20200;-78
2024/01/04 01:16:08;;;;;;;2.70;2.17;;;5.40;99.90;;;;;;5060406;28;20231;-79
2024/01/04 01:18:34;;;;;;;3.23;2.20;;;5.40;99.90;;;;;;5067126;28;20446;-77
2024/01/04 01:21:00;;;;;;;1.90;1.80;;;5.40;99.90;;;;;;5071306;28;20177;-79
2024/01/04 01:23:26;;;;;;;2.27;1.87;;;5.40;99.90;;;;;;5055997;28;20199;-77
2024/01/04 01:25:52;;;;;;;2.07;1.97;;;5.40;99.90;;;;;;5054745;28;20631;-81
2024/01/04 01:28:18;;;;;;;2.30;1.80;;;5.40;99.90;;;;;;5054685;28;20209;-81
2024/01/04 01:30:43;;;;;;;2.33;2.23;;;5.40;99.90;;;;;;5054571;28;20258;-82
2024/01/04 01:33:09;;;;;;;3.23;2.40;;;5.40;99.90;;;;;;5054502;28;20197;-81
2024/01/04 01:35:35;;;;;;;2.37;2.17;;;5.30;99.90;;;;;;5056195;28;20206;-77
2024/01/04 01:38:01;;;;;;;2.17;2.03;;;5.30;99.90;;;;;;5054517;28;20705;-79
2024/01/04 01:40:26;;;;;;;3.00;2.43;;;5.30;99.90;;;;;;5053835;28;20265;-77
2024/01/04 01:42:52;;;;;;;2.47;2.27;;;5.30;99.90;;;;;;5052942;28;20179;-77
2024/01/04 01:45:20;;;;;;;2.47;2.27;;;5.30;99.90;;;;;;5054614;28;20184;-78
2024/01/04 01:47:47;;;;;;;2.10;2.00;;;5.30;99.90;;;;;;5056158;28;20165;-78
2024/01/04 01:50:13;;;;;;;2.00;1.90;;;5.40;99.90;;;;;;5053999;28;20582;-77
2024/01/04 01:52:41;;;;;;;2.13;2.03;;;5.30;99.90;;;;;;5054339;28;20260;-77
2024/01/04 01:55:09;;;;;;;2.27;2.17;;;5.40;99.90;;;;;;5053393;28;20214;-79
2024/01/04 01:57:36;;;;;;;2.50;2.37;;;5.30;99.90;;;;;;5053818;28;20647;-79
2024/01/04 02:00:03;;;;;;;2.60;2.40;;;5.30;99.90;;;;;;5053616;28;20179;-78
2024/01/04 02:02:29;;;;;;;4.97;1.80;;;5.20;99.90;;;;;;5056604;28;20232;-79
2024/01/04 02:04:55;;;;;;;2.23;2.13;;;5.30;99.90;;;;;;5067007;28;20201;-79
2024/01/04 02:07:21;;;;;;;2.13;2.03;;;5.40;99.90;;;;;;5058087;28;20566;-77
2024/01/04 02:09:47;;;;;;;2.00;1.90;;;5.40;99.90;;;;;;5054269;28;20256;-77
2024/01/04 02:12:14;;;;;;;2.20;2.10;;;5.30;99.90;;;;;;5062288;28;20244;-78
2024/01/04 02:14:40;;;;;;;2.33;2.17;;;5.30;99.90;;;;;;5075087;28;20315;-78
2024/01/04 02:17:07;;;;;;;2.40;2.20;;;5.40;99.90;;;;;;5057576;28;20632;-79
2024/01/04 02:19:33;;;;;;;2.10;2.00;;;5.40;99.90;;;;;;5053636;28;20303;-80
2024/01/04 02:21:59;;;;;;;2.60;2.40;;;5.40;99.90;;;;;;5053203;28;20222;-76
2024/01/04 02:24:25;;;;;;;2.40;2.20;;;5.40;99.90;;;;;;5069612;28;20574;-80
2024/01/04 02:26:51;;;;;;;2.50;2.40;;;5.40;99.90;;;;;;5054469;28;20518;-78
2024/01/04 02:29:17;;;;;;;2.30;2.20;;;5.40;99.90;;;;;;5055363;28;20232;-79
2024/01/04 02:31:47;;;;;;;2.10;2.00;;;5.30;99.90;;;;;;5071976;28;20173;-79
2024/01/04 02:34:13;;;;;;;2.73;2.03;;;5.30;99.90;;;;;;5067229;28;20683;-76
2024/01/04 02:36:39;;;;;;;2.23;2.03;;;5.20;99.90;;;;;;5053505;28;20196;-79
2024/01/04 02:39:05;;;;;;;2.57;2.37;;;5.20;99.90;;;;;;5053624;28;20658;-76
2024/01/04 02:41:30;;;;;;;2.50;2.30;;;5.10;99.90;;;;;;5052058;28;20669;-76
2024/01/04 02:43:56;;;;;;;2.60;2.23;;;5.10;99.90;;;;;;5053595;28;20175;-77
2024/01/04 02:46:22;;;;;;;3.07;2.10;;;5.00;99.90;;;;;;5052139;28;20240;-82
2024/01/04 02:48:48;;;;;;;2.50;2.40;;;4.90;99.90;;;;;;5053473;28;20904;-80
2024/01/04 02:51:14;;;;;;;4.13;3.00;;;4.90;99.90;;;;;;5053563;28;20263;-82
2024/01/04 02:53:40;;;;;;;3.37;3.17;;;4.90;99.90;;;;;;5051655;28;20258;-82
2024/01/04 02:56:05;;;;;;;5.47;3.07;;;4.80;99.90;;;;;;5053284;28;20169;-77
2024/01/04 02:58:32;;;;;;;4.00;3.60;;;4.60;99.90;;;;;;5051746;28;20263;-77
2024/01/04 03:00:58;;;;;;;4.70;2.90;;;4.40;99.90;;;;;;5059563;28;20177;-78
2024/01/04 03:03:24;;;;;;;3.30;3.10;;;4.40;99.90;;;;;;5061536;28;20203;-79
2024/01/04 03:05:50;;;;;;;4.37;3.63;;;4.40;99.90;;;;;;5055823;28;20608;-78
2024/01/04 03:08:16;;;;;;;3.70;3.40;;;4.30;99.90;;;;;;5054436;28;20672;-77
2024/01/04 03:10:42;;;;;;;4.00;3.70;;;4.10;99.90;;;;;;5053127;28;20161;-76
2024/01/04 03:13:08;;;;;;;4.37;3.80;;;4.10;99.90;;;;;;5053462;28;20627;-78
2024/01/04 03:15:33;;;;;;;5.97;3.80;;;4.00;99.90;;;;;;5052495;28;20172;-79
2024/01/04 03:17:59;;;;;;;3.30;3.00;;;3.80;99.90;;;;;;5053007;28;20623;-77
2024/01/04 03:20:25;;;;;;;3.33;2.90;;;3.90;99.90;;;;;;5053114;28;20628;-80
2024/01/04 03:22:51;;;;;;;2.90;2.67;;;4.20;99.90;;;;;;5053293;28;20580;-77
2024/01/04 03:25:16;;;;;;;3.10;2.30;;;4.10;99.90;;;;;;5053047;28;20176;-77
2024/01/04 03:27:43;;;;;;;2.80;2.60;;;4.30;99.90;;;;;;5052697;28;20639;-78
2024/01/04 03:30:10;;;;;;;2.53;2.33;;;4.40;99.90;;;;;;5052445;28;20616;-78
2024/01/04 03:32:36;;;;;;;2.80;2.60;;;4.50;99.90;;;;;;5052921;28;20579;-80
2024/01/04 03:35:04;;;;;;;2.40;2.20;;;4.60;99.90;;;;;;5053144;28;20238;-79
2024/01/04 03:37:30;;;;;;;3.00;2.80;;;4.50;99.90;;;;;;5055233;28;20845;-78
2024/01/04 03:39:56;;;;;;;2.37;2.27;;;4.70;99.90;;;;;;5053104;28;20188;-79
2024/01/04 03:42:22;;;;;;;2.20;2.10;;;4.70;99.90;;;;;;5064631;28;20215;-79
2024/01/04 03:44:48;;;;;;;2.67;2.47;;;4.70;99.90;;;;;;5054619;28;20215;-79
2024/01/04 03:47:13;;;;;;;2.87;2.60;;;4.60;99.90;;;;;;5053504;28;20174;-79
2024/01/04 03:49:39;;;;;;;2.20;2.10;;;4.60;99.90;;;;;;5054509;28;20238;-79
2024/01/04 03:52:05;;;;;;;2.33;2.23;;;4.60;99.90;;;;;;5053370;28;20169;-79
2024/01/04 03:54:31;;;;;;;2.63;2.43;;;4.60;99.90;;;;;;5062782;28;20215;-78
2024/01/04 03:56:57;;;;;;;3.00;2.60;;;4.50;99.90;;;;;;5060992;28;20252;-77
2024/01/04 03:59:23;;;;;;;3.13;2.50;;;4.50;99.90;;;;;;5070872;28;20189;-80
2024/01/04 04:01:49;;;;;;;2.83;2.50;;;4.50;99.90;;;;;;5066032;28;20184;-77
2024/01/04 04:04:15;;;;;;;2.40;2.30;;;4.50;99.90;;;;;;5055078;28;20193;-77
2024/01/04 04:06:41;;;;;;;2.30;2.20;;;4.60;99.90;;;;;;5055510;28;20179;-80
2024/01/04 04:09:07;;;;;;;3.03;2.50;;;4.60;99.90;;;;;;5060983;28;20246;-83
2024/01/04 04:11:33;;;;;;;2.40;2.30;;;4.60;99.90;;;;;;5063387;28;20172;-83
2024/01/04 04:13:59;;;;;;;2.70;2.50;;;4.60;99.90;;;;;;5056198;28;20208;-77
2024/01/04 04:16:25;;;;;;;2.67;2.47;;;4.60;99.90;;;;;;5052526;28;20195;-78
2024/01/04 04:18:51;;;;;;;3.00;2.80;;;4.50;99.90;;;;;;5052363;28;20203;-77
2024/01/04 04:21:20;;;;;;;4.03;2.40;;;4.50;99.90;;;;;;5051974;28;20182;-78
2024/01/04 04:23:49;;;;;;;3.43;2.53;;;4.50;99.90;;;;;;5052618;28;20234;-77
2024/01/04 04:26:20;;;;;;;2.63;2.43;;;4.40;99.90;;;;;;5051775;28;20175;-78
2024/01/04 04:28:47;;;;;;;2.47;2.27;;;4.30;99.90;;;;;;5052235;28;20197;-77
2024/01/04 04:31:14;;;;;;;2.50;2.40;;;4.40;99.90;;;;;;5052333;28;20573;-78
2024/01/04 04:33:40;;;;;;;2.70;2.50;;;4.40;99.90;;;;;;5068880;28;20196;-78
2024/01/04 04:36:07;;;;;;;2.53;2.33;;;4.30;99.90;;;;;;5055611;28;20370;-78
2024/01/04 04:38:36;;;;;;;2.80;2.60;;;4.30;99.90;;;;;;5055099;28;20664;-77
2024/01/04 04:41:05;;;;;;;2.70;2.50;;;4.20;99.90;;;;;;5055808;28;20179;-77
2024/01/04 04:43:32;;;;;;;2.60;2.50;;;4.20;99.90;;;;;;5073437;28;20178;-79
2024/01/04 04:45:58;;;;;;;2.80;2.57;;;4.20;99.90;;;;;;5058596;28;20272;-78
2024/01/04 04:48:24;;;;;;;2.73;2.53;;;4.10;99.90;;;;;;5055846;28;20169;-79
2024/01/04 04:50:51;;;;;;;3.27;2.53;;;4.10;99.90;;;;;;5055628;28;20179;-79
2024/01/04 04:53:17;;;;;;;3.07;2.83;;;4.10;99.90;;;;;;5055331;28;20202;-77
2024/01/04 04:55:43;;;;;;;2.80;2.60;;;4.00;99.90;;;;;;5055161;28;20181;-78
2024/01/04 04:58:09;;;;;;;3.40;2.50;;;4.00;99.90;;;;;;5057847;28;20202;-80
2024/01/04 05:00:35;;;;;;;3.50;3.03;;;4.00;99.90;;;;;;5066153;28;20173;-77
2024/01/04 05:03:01;;;;;;;3.50;2.90;;;3.90;99.90;;;;;;5056796;28;20253;-77
2024/01/04 05:05:27;;;;;;;3.50;3.20;;;3.90;99.90;;;;;;5055293;28;20186;-76
2024/01/04 05:07:53;;;;;;;3.53;3.30;;;3.80;99.90;;;;;;5055247;28;20179;-77
2024/01/04 05:10:19;;;;;;;3.60;3.30;;;3.70;99.90;;;;;;5055206;28;20232;-78
2024/01/04 05:12:45;;;;;;;4.13;3.73;;;3.50;99.90;;;;;;5055264;28;20628;-79
2024/01/04 05:15:10;;;;;;;3.87;3.33;;;3.40;99.90;;;;;;5055962;28;20208;-80
2024/01/04 05:17:36;;;;;;;5.10;4.00;;;3.30;99.90;;;;;;5055590;28;20176;-78
2024/01/04 05:20:04;;;;;;;5.50;4.10;;;3.30;99.90;;;;;;5053942;28;20182;-79
2024/01/04 05:22:30;;;;;;;5.17;3.70;;;3.20;99.90;;;;;;5054888;28;20169;-79
2024/01/04 05:24:56;;;;;;;4.17;3.77;;;3.10;99.90;;;;;;5055027;28;20520;-79
2024/01/04 05:27:22;;;;;;;4.57;4.03;;;3.00;99.90;;;;;;5054765;28;20190;-84
2024/01/04 05:29:48;;;;;;;4.07;3.67;;;2.90;99.90;;;;;;5055297;28;20177;-83
2024/01/04 05:32:14;;;;;;;4.47;3.97;;;2.90;99.90;;;;;;5055484;28;20185;-83
2024/01/04 05:34:42;;;;;;;4.07;3.77;;;2.80;99.90;;;;;;5055432;28;20220;-79
2024/01/04 05:37:08;;;;;;;3.60;3.33;;;2.80;99.90;;;;;;5055535;28;20187;-79
2024/01/04 05:39:34;;;;;;;3.53;3.23;;;2.90;99.90;;;;;;5055882;28;20529;-80
2024/01/04 05:42:01;;;;;;;3.77;3.37;;;2.90;99.90;;;;;;5057814;28;20182;-78
2024/01/04 05:44:26;;;;;;;3.23;3.03;;;2.90;99.90;;;;;;5070027;28;20188;-79
2024/01/04 05:46:52;;;;;;;3.23;2.90;;;3.00;99.90;;;;;;5075191;28;20183;-78
2024/01/04 05:49:18;;;;;;;3.33;3.00;;;3.00;99.90;;;;;;5063074;28;20193;-78
2024/01/04 05:51:44;;;;;;;4.50;3.50;;;3.00;99.90;;;;;;5054666;28;20208;-76
2024/01/04 05:54:10;;;;;;;4.20;3.67;;;3.00;99.90;;;;;;5054612;28;20213;-79
2024/01/04 05:56:36;;;;;;;6.77;5.30;;;3.00;99.90;;;;;;5054725;28;20545;-78
2024/01/04 05:59:02;;;;;;;5.40;4.47;;;3.00;99.90;;;;;;5055128;28;20177;-77
2024/01/04 06:01:28;;;;;;;6.20;5.00;;;2.80;99.90;;;;;;5056609;28;20175;-78
2024/01/04 06:03:54;;;;;;;5.13;4.63;;;2.70;99.90;;;;;;5054427;28;20186;-77
2024/01/04 06:06:20;;;;;;;5.47;4.70;;;2.70;99.90;;;;;;5055972;28;20257;-79
2024/01/04 06:08:46;;;;;;;4.67;3.50;;;2.80;99.90;;;;;;5070818;28;20321;-78
2024/01/04 06:11:12;;;;;;;4.63;3.50;;;2.70;99.90;;;;;;5061412;28;20218;-79
2024/01/04 06:13:38;;;;;;;5.70;3.70;;;2.80;99.90;;;;;;5055766;28;20232;-77
2024/01/04 06:16:09;;;;;;;3.50;3.20;;;2.80;99.90;;;;;;5058981;28;20192;-78
2024/01/04 06:18:35;;;;;;;3.93;3.23;;;2.80;99.90;;;;;;5063055;28;20519;-77
2024/01/04 06:21:01;;;;;;;3.23;2.97;;;2.80;99.90;;;;;;5056266;28;20186;-77
2024/01/04 06:23:31;;;;;;;3.73;3.43;;;3.00;99.90;;;;;;5055938;28;20189;-77
2024/01/04 06:25:57;;;;;;;3.27;3.07;;;3.00;99.90;;;;;;5060297;28;20196;-79
2024/01/04 06:28:23;;;;;;;3.80;3.37;;;2.90;99.90;;;;;;5065536;28;20526;-80
2024/01/04 06:30:49;;;;;;;3.17;2.87;;;3.00;99.90;;;;;;5054480;28;20178;-78
2024/01/04 06:33:15;;;;;;;3.50;3.20;;;3.10;99.90;;;;;;5055499;28;20168;-78
2024/01/04 06:35:44;;;;;;;3.40;3.10;;;3.00;99.90;;;;;;5053988;28;20187;-79
2024/01/04 06:38:10;;;;;;;3.30;3.10;;;3.00;99.90;;;;;;5048424;28;20266;-76
2024/01/04 06:40:37;;;;;;;3.10;2.90;;;3.00;99.90;;;;;;5038954;28;20275;-78
2024/01/04 06:43:03;;;;;;;3.57;3.27;;;3.80;99.90;;;;;;5034410;28;20191;-78
2024/01/04 06:45:32;;;;;;;3.07;2.87;;;3.00;99.90;;;;;;5042253;28;20666;-82
2024/01/04 06:47:58;;;;;;;3.80;3.23;;;3.10;99.90;;;;;;5036182;28;20175;-82
2024/01/04 06:50:23;;;;;;;3.70;3.40;;;3.00;99.90;;;;;;5053088;28;20534;-81
2024/01/04 06:52:49;;;;;;;3.50;3.20;;;3.00;99.90;;;;;;5053246;28;20179;-82
2024/01/04 06:55:15;;;;;;;3.70;3.40;;;3.00;99.90;;;;;;5053325;28;20231;-78
2024/01/04 06:57:41;;;;;;;4.13;3.10;;;3.00;99.90;;;;;;5054043;28;20182;-77
2024/01/04 07:00:08;;;;;;;3.33;3.00;;;3.00;99.90;;;;;;5053941;28;20182;-77
2024/01/04 07:02:38;;;;;;;5.47;3.00;;;3.00;99.90;;;;;;5053750;28;20693;-78
2024/01/04 07:05:05;;;;;;;3.30;3.00;;;2.90;99.90;;;;;;5054607;28;20179;-77
2024/01/04 07:07:34;;;;;;;3.53;3.23;;;2.90;99.90;;;;;;5054268;28;20349;-77
2024/01/04 07:10:00;;;;;;;3.33;3.03;;;2.90;99.90;;;;;;5055558;28;20298;-79
2024/01/04 07:12:26;;;;;;;3.30;3.00;;;2.90;99.90;;;;;;5056592;28;20710;-78
2024/01/04 07:14:55;;;;;;;3.60;3.30;;;2.80;99.90;;;;;;5056357;28;20209;-78
2024/01/04 07:17:22;;;;;;;4.30;3.43;;;2.80;99.90;;;;;;5053560;28;20197;-77
2024/01/04 07:19:48;;;;;;;3.77;3.47;;;2.70;99.90;;;;;;5055831;28;20209;-80
2024/01/04 07:22:15;;;;;;;3.27;3.07;;;2.70;99.90;;;;;;5060648;28;20174;-78
2024/01/04 07:24:41;;;;;;;4.43;3.67;;;2.70;99.90;;;;;;5055751;28;20182;-76
2024/01/04 07:27:09;;;;;;;4.07;3.67;;;2.70;99.90;;;;;;5054154;28;20176;-79
2024/01/04 07:29:34;;;;;;;3.90;3.47;;;2.60;99.90;;;;;;5073876;28;20176;-78
2024/01/04 07:32:00;;;;;;;4.50;4.10;;;2.60;99.90;;;;;;5066399;28;20257;-80
2024/01/04 07:34:27;;;;;;;4.87;3.70;;;2.60;99.90;;;;;;5067980;28;20218;-78
2024/01/04 07:36:53;;;;;;;4.23;3.87;;;2.60;99.90;;;;;;5055881;28;20695;-81
2024/01/04 07:39:18;;;;;;;10.03;3.60;;;2.50;99.90;;;;;;5053701;28;20177;-78
2024/01/04 07:41:44;;;;;;;4.10;3.77;;;2.50;99.90;;;;;;5053169;28;20176;-77
2024/01/04 07:44:10;;;;;;;3.90;3.37;;;2.50;99.90;;;;;;5052260;28;20172;-77
2024/01/04 07:46:36;;;;;;;4.30;3.90;;;2.60;99.90;;;;;;5053316;28;20232;-78
2024/01/04 07:49:10;;;;;;;4.33;3.80;;;2.60;99.90;;;;;;5052994;28;20176;-77
2024/01/04 07:51:37;;;;;;;7.17;4.20;;;2.60;99.90;;;;;;5053223;28;20161;-78
2024/01/04 07:54:02;;;;;;;4.17;3.77;;;2.60;99.90;;;;;;5053385;28;20274;-76
2024/01/04 07:56:28;;;;;;;5.30;4.10;;;2.50;99.90;;;;;;5053909;28;20168;-80
2024/01/04 07:58:54;;;;;;;6.27;4.70;;;2.50;99.90;;;;;;5052816;28;20169;-78
2024/01/04 08:01:20;;;;;;;4.23;3.93;;;2.60;99.90;;;;;;5051906;28;20178;-80
2024/01/04 08:03:45;;;;;;;4.47;3.87;;;2.70;99.90;;;;;;5052527;28;20171;-79
2024/01/04 08:06:11;;;;;;;5.97;4.77;;;2.60;99.90;;;;;;5057366;28;20170;-81
2024/01/04 08:08:37;;;;;;;6.73;5.27;;;2.60;99.90;;;;;;5065959;28;20235;-78
2024/01/04 08:11:03;;;;;;;6.77;5.30;;;2.60;99.90;;;;;;5056692;28;20268;-78
2024/01/04 08:13:29;;;;;;;6.10;4.67;;;2.70;99.90;;;;;;5044870;28;20196;-81
2024/01/04 08:15:55;;;;;;;5.37;4.60;;;2.70;99.90;;;;;;5035857;28;20252;-81
2024/01/04 08:18:24;;;;;;;6.57;5.27;;;2.90;99.90;;;;;;5037039;28;20546;-78
2024/01/04 08:20:49;;;;;;;4.97;4.53;;;2.90;99.90;;;;;;5037486;28;20173;-78
2024/01/04 08:23:15;;;;;;;8.23;5.20;;;3.00;99.90;;;;;;5037103;28;20594;-80
2024/01/04 08:25:41;;;;;;;7.27;5.97;;;3.00;99.90;;;;;;5036959;28;20688;-78
2024/01/04 08:28:10;;;;;;;6.77;5.40;;;3.10;99.90;;;;;;5036831;28;20183;-76
2024/01/04 08:30:37;;;;;;;6.50;5.73;;;3.10;99.90;;;;;;5049967;28;20182;-76
2024/01/04 08:33:03;;;;;;;6.83;5.40;;;3.20;99.90;;;;;;5048498;28;20184;-77
2024/01/04 08:35:28;;;;;;;4.60;4.20;;;3.20;99.90;;;;;;5037115;28;20182;-77
2024/01/04 08:37:54;;;;;;;4.50;3.87;;;3.30;99.90;;;;;;5036001;28;20203;-77
2024/01/04 08:40:20;;;;;;;4.40;4.03;;;3.40;99.90;;;;;;5035734;28;20648;-80
2024/01/04 08:42:46;;;;;;;4.80;4.10;;;3.50;99.90;;;;;;5036186;28;20637;-78
2024/01/04 08:45:12;;;;;;;4.50;4.10;;;3.60;99.90;;;;;;5036208;28;20187;-78
2024/01/04 08:47:40;;;;;;;4.53;3.97;;;3.70;99.90;;;;;;5039617;28;20222;-80
2024/01/04 08:50:07;;;;;;;4.50;4.10;;;3.80;99.90;;;;;;5036177;28;20250;-78
2024/01/04 08:52:33;;;;;;;4.70;4.20;;;3.90;99.90;;;;;;5037066;28;20662;-76
2024/01/04 08:54:59;;;;;;;5.47;4.97;;;4.00;99.90;;;;;;5041200;28;20213;-77
2024/01/04 08:57:25;;;;;;;6.57;4.37;;;4.00;99.90;;;;;;5038668;28;20169;-76
2024/01/04 08:59:51;;;;;;;4.80;4.40;;;4.10;99.90;;;;;;5044367;28;20180;-77
2024/01/04 09:02:17;;;;;;;5.93;4.37;;;4.10;99.90;;;;;;5049992;28;20268;-76
2024/01/04 09:04:43;;;;;;;5.37;4.60;;;4.10;99.90;;;;;;5037849;28;20208;-77
2024/01/04 09:07:09;;;;;;;5.03;4.53;;;4.20;99.90;;;;;;5035938;28;20181;-76
2024/01/04 09:09:35;;;;;;;6.23;4.60;;;4.30;99.90;;;;;;5035826;28;20330;-77
2024/01/04 09:12:01;;;;;;;4.60;4.00;;;4.40;99.90;;;;;;5036750;28;20184;-77
2024/01/04 09:14:27;;;;;;;3.80;3.50;;;4.40;99.90;;;;;;5041986;28;20262;-78
2024/01/04 09:16:53;;;;;;;5.17;4.13;;;4.50;99.90;;;;;;5054340;28;20177;-77
2024/01/04 09:19:20;;;;;;;4.13;3.73;;;4.60;99.90;;;;;;5037955;28;20209;-76
2024/01/04 09:21:50;;;;;;;4.90;3.73;;;4.70;99.90;;;;;;5044989;28;20260;-77
2024/01/04 09:24:20;;;;;;;4.27;3.80;;;4.80;99.90;;;;;;5049295;28;20558;-78
2024/01/04 09:26:46;;;;;;;3.80;3.50;;;4.80;99.90;;;;;;5036945;28;20174;-81
2024/01/04 09:29:13;;;;;;;4.50;4.10;;;4.90;99.90;;;;;;5041907;28;20230;-82
2024/01/04 09:31:42;;;;;;;4.87;4.03;;;5.00;99.90;;;;;;5037798;28;20633;-79
2024/01/04 09:34:08;;;;;;;4.23;3.83;;;5.00;99.90;;;;;;5036784;28;20216;-81
2024/01/04 09:36:34;;;;;;;5.67;4.13;;;5.10;99.90;;;;;;5035359;28;20649;-78
2024/01/04 09:39:03;;;;;;;3.90;3.60;;;5.20;99.90;;;;;;5034765;28;20180;-79
2024/01/04 09:41:33;;;;;;;7.23;4.17;;;5.30;99.90;;;;;;5035098;28;20549;-78
2024/01/04 09:44:01;;;;;;;5.20;3.90;;;5.40;99.90;;;;;;5034999;28;20217;-78
2024/01/04 09:46:34;;;;;;;4.47;4.03;;;5.40;99.90;;;;;;5034975;28;20203;-79
2024/01/04 09:49:00;;;;;;;5.40;4.03;;;5.40;99.90;;;;;;5035886;28;20212;-80
2024/01/04 09:51:34;;;;;;;4.03;3.70;;;5.50;99.90;;;;;;5035678;28;20184;-80
2024/01/04 09:54:09;;;;;;;4.83;3.93;;;5.60;99.90;;;;;;5034530;28;20209;-79
2024/01/04 09:56:50;;;;;;;4.00;3.70;;;5.60;99.90;;;;;;5034949;28;20259;-78
2024/01/04 09:59:16;;;;;;;6.13;3.53;;;5.60;99.90;;;;;;5034542;28;20162;-78
2024/01/04 10:01:43;;;;;;;7.83;4.27;;;5.60;99.90;;;;;;5034725;28;20236;-78
2024/01/04 10:04:13;;;;;;;4.57;4.03;;;5.60;99.90;;;;;;5035963;28;20501;-78
2024/01/04 10:06:41;;;;;;;8.77;4.93;;;5.70;99.90;;;;;;5050727;28;20171;-77
2024/01/04 10:09:24;;;;;;;8.57;4.73;;;5.70;99.90;;;;;;5057618;28;20230;-77
2024/01/04 10:12:08;;;;;;;6.83;5.17;;;5.80;99.90;;;;;;5046804;28;20174;-77
2024/01/04 10:14:35;;;;;;;8.47;5.23;;;5.80;99.90;;;;;;5037146;28;20670;-79
2024/01/04 10:17:04;;;;;;;6.93;5.70;;;5.90;99.90;;;;;;5034202;28;20168;-78
2024/01/04 10:19:32;;;;;;;10.00;6.10;;;6.00;99.90;;;;;;5034230;28;20245;-79
2024/01/04 10:22:05;;;;;;;6.60;5.90;;;6.10;99.90;;;;;;5034047;28;20557;-78
2024/01/04 10:24:37;;;;;;;7.33;5.60;;;6.10;99.90;;;;;;5033199;28;20601;-80
2024/01/04 10:27:04;;;;;;;7.57;6.20;;;6.20;99.90;;;;;;5034443;28;20180;-79
2024/01/04 10:29:31;;;;;;;5.37;4.87;;;6.20;99.90;;;;;;5033963;28;20175;-79
2024/01/04 10:32:04;;;;;;;5.70;5.03;;;6.30;99.90;;;;;;5033198;28;20187;-79
2024/01/04 10:34:33;;;;;;;7.37;4.77;;;6.30;99.90;;;;;;5033653;28;20615;-79
2024/01/04 10:37:22;;;;;;;6.50;4.83;;;6.30;99.90;;;;;;5033095;28;20250;-77
2024/01/04 10:39:59;;;;;;;6.60;4.73;;;6.50;99.90;;;;;;5042996;28;20168;-78
2024/01/04 10:42:25;;;;;;;5.40;4.50;;;6.50;99.90;;;;;;5034893;28;20171;-79
2024/01/04 10:44:51;;;;;;;5.97;4.63;;;6.60;99.90;;;;;;5033864;28;20240;-78
2024/01/04 10:47:17;;;;;;;5.27;4.60;;;6.60;99.90;;;;;;5033804;28;20176;-80
2024/01/04 10:49:47;;;;;;;7.80;4.20;;;6.80;99.90;;;;;;5033462;28;20174;-82
2024/01/04 10:52:19;;;;;;;6.37;4.33;;;6.80;99.90;;;;;;5031745;28;20169;-78
2024/01/04 10:54:46;;;;;;;4.70;4.20;;;6.00;99.90;;;;;;5033382;28;20196;-77
2024/01/04 10:57:12;;;;;;;4.00;3.60;;;6.80;99.90;;;;;;5033558;28;20171;-77
2024/01/04 10:59:42;;;;;;;5.77;4.00;;;6.90;99.90;;;;;;5033880;28;20175;-77
2024/01/04 11:02:13;;;;;;;4.47;4.07;;;7.00;99.90;;;;;;5050602;28;20179;-78
2024/01/04 11:04:39;;;;;;;4.37;3.97;;;7.00;99.90;;;;;;5043388;28;20162;-79
2024/01/04 11:07:05;;;;;;;4.90;3.83;;;7.10;99.90;;;;;;5034272;28;20200;-78
2024/01/04 11:09:34;;;;;;;6.80;3.97;;;7.10;99.90;;;;;;5033473;28;20682;-79
2024/01/04 11:12:02;;;;;;;4.23;3.83;;;7.20;99.90;;;;;;5047566;28;20220;-76
2024/01/04 11:14:28;;;;;;;4.40;3.60;;;7.20;99.90;;;;;;5040493;28;20208;-79
2024/01/04 11:17:19;;;;;;;4.20;3.80;;;7.30;99.90;;;;;;5032220;28;20187;-78
2024/01/04 11:20:10;;;;;;;4.27;3.80;;;7.30;99.90;;;;;;5033341;28;20227;-79
2024/01/04 11:23:08;;;;;;;4.00;3.33;;;7.40;99.90;;;;;;5033228;28;20244;-80
2024/01/04 11:26:00;;;;;;;3.83;3.50;;;7.50;99.90;;;;;;5033418;28;20168;-75
2024/01/04 11:28:27;;;;;;;3.50;3.20;;;7.70;99.90;;;;;;5033460;28;20185;-79
2024/01/04 11:30:53;;;;;;;2.90;2.70;;;7.80;99.90;;;;;;5041458;28;20197;-79
2024/01/04 11:33:22;;;;;;;3.63;3.33;;;7.90;99.90;;;;;;5053233;28;20219;-78
2024/01/04 11:35:51;;;;;;;3.70;3.40;;;7.90;99.90;;;;;;5055545;28;20184;-77
2024/01/04 11:38:30;;;;;;;3.63;3.33;;;8.00;99.90;;;;;;5041125;28;20222;-76
2024/01/04 11:40:56;;;;;;;3.17;2.97;;;8.00;99.90;;;;;;5034065;28;20190;-78
2024/01/04 11:43:22;;;;;;;3.40;3.20;;;8.00;99.90;;;;;;5032961;28;20694;-79
2024/01/04 11:45:48;;;;;;;4.57;3.83;;;8.00;99.90;;;;;;5036763;28;20176;-78
2024/01/04 11:48:20;;;;;;;5.37;4.10;;;8.10;99.90;;;;;;5057322;28;20213;-79
2024/01/04 11:50:51;;;;;;;3.80;3.37;;;8.10;99.90;;;;;;5038508;28;20170;-80
2024/01/04 11:53:18;;;;;;;5.00;3.50;;;8.10;99.90;;;;;;5037151;28;20161;-78
2024/01/04 11:55:45;;;;;;;3.70;3.40;;;8.00;99.90;;;;;;5037543;28;20260;-77
2024/01/04 11:58:12;;;;;;;4.20;3.63;;;8.00;99.90;;;;;;5037603;28;20174;-78
2024/01/04 12:00:50;;;;;;;3.93;3.50;;;8.10;99.90;;;;;;5037128;28;20172;-78
2024/01/04 12:03:17;;;;;;;4.50;4.10;;;8.10;99.90;;;;;;5037883;28;20687;-77
2024/01/04 12:05:44;;;;;;;4.00;3.70;;;8.20;99.90;;;;;;5039957;28;20175;-75
2024/01/04 12:08:22;;;;;;;3.60;3.30;;;8.30;99.90;;;;;;5043221;28;20610;-80
2024/01/04 12:10:52;;;;;;;3.60;3.30;;;8.40;99.90;;;;;;5037222;28;20180;-82
2024/01/04 12:13:18;;;;;;;7.17;3.77;;;8.40;99.90;;;;;;5037086;28;20155;-79
2024/01/04 12:15:44;;;;;;;11.17;5.50;;;8.50;99.90;;;;;;5037392;28;20173;-77
2024/01/04 12:18:10;;;;;;;4.73;3.60;;;8.60;99.90;;;;;;5041605;28;20212;-79
2024/01/04 12:20:36;;;;;;;3.13;2.83;;;8.70;99.90;;;;;;5043098;28;20194;-79
2024/01/04 12:23:06;;;;;;;3.03;2.73;;;8.70;99.90;;;;;;5038454;28;20194;-79
2024/01/04 12:25:35;;;;;;;3.47;2.87;;;8.80;99.90;;;;;;5037973;28;20159;-77
2024/01/04 12:28:02;;;;;;;3.40;2.90;;;9.10;99.90;;;;;;5040191;28;20187;-78
2024/01/04 12:30:29;;;;;;;2.97;2.70;;;9.20;99.90;;;;;;5037496;28;20168;-79
2024/01/04 12:33:02;;;;;;;3.00;2.80;;;9.40;99.90;;;;;;5035702;28;20221;-76
2024/01/04 12:35:28;;;;;;;2.80;2.60;;;9.50;99.90;;;;;;5037190;28;20217;-78
2024/01/04 12:38:03;;;;;;;5.67;2.20;;;9.60;99.90;;;;;;5037242;28;20229;-79
2024/01/04 12:40:40;;;;;;;3.40;2.37;;;10.50;99.90;;;;;;5037358;28;20160;-78
2024/01/04 12:43:08;;;;;;;2.83;2.50;;;9.90;99.90;;;;;;5037197;28;20174;-80
2024/01/04 12:45:34;;;;;;;2.40;2.20;;;10.00;99.90;;;;;;5037064;28;20238;-78
2024/01/04 12:48:05;;;;;;;6.83;2.97;;;10.20;99.90;;;;;;5034722;28;20187;-75
2024/01/04 12:50:32;;;;;;;2.30;2.20;;;10.20;99.90;;;;;;5051681;28;20167;-77
2024/01/04 12:52:58;;;;;;;1.60;1.60;;;10.40;99.90;;;;;;5048076;28;20188;-77
2024/01/04 12:55:27;;;;;;;2.90;2.40;;;10.50;99.90;;;;;;5037905;28;20208;-80
2024/01/04 12:57:53;;;;;;;3.97;2.73;;;10.60;99.40;;;;;;5039082;28;20252;-78